Time;durP1;ratioP1;P1;durP2;ratioP2;P2;SDS_P1;SDS_P2;PMS_P1;PMS_P2;Temp;Humidity;BMP_temperature;BMP_pressure;BME280_temperature;BME280_humidity;BME280_pressure;Samples;Min_cycle;Max_cycle;Signal;HPM_P1;HPM_P2
2022/06/09 08:23:29;;;;;;;;;;;;;;;17.40;60.01;99666.19;1087417;54;21087;-80
2022/06/09 08:24:33;;;;;;;;;;;;;;;17.57;59.68;99666.69;1088111;54;19943;-81
2022/06/09 08:25:38;;;;;;;;;;;;;;;17.51;60.15;99672.88;1088259;54;19927;-78
2022/06/09 08:26:42;;;;;;;;;;;;;;;17.54;60.20;99672.50;1088179;54;19974;-83
2022/06/09 08:27:43;;;;;;;;;;;;;;;17.73;59.86;99675.50;1088171;54;19942;-82
2022/06/09 08:28:47;;;;;;;;;;;;;;;17.81;59.63;99669.91;1088389;54;19943;-80
2022/06/09 08:29:51;;;;;;;;;;;;;;;17.69;60.05;99676.94;1088244;54;19934;-80
2022/06/09 08:30:53;;;;;;;;;;;;;;;17.51;59.67;99678.28;1088060;54;19935;-78
2022/06/09 08:31:57;;;;;;;;;;;;;;;17.53;60.30;99669.97;1088281;54;19946;-80
2022/06/09 08:33:01;;;;;;;;;;;;;;;17.58;60.30;99670.22;1088106;54;21187;-79
2022/06/09 08:34:03;;;;;;;;;;;;;;;17.70;59.92;99676.75;1088319;54;19927;-81
2022/06/09 08:35:10;;;;;;;;;;;;;;;17.80;59.98;99673.66;1088287;54;19927;-80
2022/06/09 08:36:15;;;;;;;;;;;;;;;17.66;60.14;99675.47;1088120;54;19943;-79
2022/06/09 08:37:19;;;;;;;;;;;;;;;17.77;60.12;99676.75;1088169;54;19942;-79
2022/06/09 08:38:20;;;;;;;;;;;;;;;17.42;60.15;99679.50;1087904;54;19942;-79
2022/06/09 08:39:27;;;;;;;;;;;;;;;17.50;59.75;99684.72;1087894;54;19958;-79
2022/06/09 08:40:36;;;;;;;;;;;;;;;17.49;59.70;99679.53;1087862;54;19950;-81
2022/06/09 08:41:45;;;;;;;;;;;;;;;17.62;60.29;99680.44;1087719;54;19942;-79
2022/06/09 08:42:52;;;;;;;;;;;;;;;17.34;60.55;99676.94;1087814;54;19943;-80
2022/06/09 08:44:01;;;;;;;;;;;;;;;17.42;60.60;99679.50;1096300;39;20803;-78
2022/06/09 08:45:07;;;;;;;;;;;;;;;17.57;60.21;99685.59;1087998;54;19951;-81
2022/06/09 08:46:18;;;;;;;;;;;;;;;17.46;61.15;99680.78;1088279;54;19922;-82
2022/06/09 08:47:25;;;;;;;;;;;;;;;17.67;61.00;99687.09;1088216;54;19950;-79
2022/06/09 08:48:36;;;;;;;;;;;;;;;17.59;60.99;99680.81;1088361;54;19946;-80
2022/06/09 08:49:52;;;;;;;;;;;;;;;17.61;59.93;99678.78;1088320;54;19933;-79
2022/06/09 08:51:03;;;;;;;;;;;;;;;17.60;60.43;99682.50;1088250;54;19966;-78
2022/06/09 08:52:07;;;;;;;;;;;;;;;17.58;60.63;99679.16;1088323;54;19942;-79
2022/06/09 08:53:21;;;;;;;;;;;;;;;17.52;60.18;99679.16;1088261;54;19954;-79
2022/06/09 08:54:27;;;;;;;;;;;;;;;17.44;60.83;99678.25;1088385;54;19934;-83
2022/06/09 08:55:37;;;;;;;;;;;;;;;17.48;60.36;99678.69;1091914;46;19942;-83
2022/06/09 08:56:39;;;;;;;;;;;;;;;17.62;60.11;99676.88;1091428;46;19942;-82
2022/06/09 08:57:42;;;;;;;;;;;;;;;17.75;60.24;99684.25;1088431;54;20238;-81
2022/06/09 08:58:50;;;;;;;;;;;;;;;17.67;60.28;99687.94;1088207;54;19934;-83
2022/06/09 08:59:55;;;;;;;;;;;;;;;17.69;59.64;99680.47;1089324;47;19938;-82
2022/06/09 09:01:02;;;;;;;;;;;;;;;17.92;59.21;99677.47;1088221;54;19947;-83
2022/06/09 09:02:11;;;;;;;;;;;;;;;17.96;58.37;99677.03;1088233;54;19942;-81
2022/06/09 09:03:20;;;;;;;;;;;;;;;17.95;58.59;99684.31;1088214;54;19942;-81
2022/06/09 09:04:25;;;;;;;;;;;;;;;18.15;57.92;99679.00;1088305;54;19927;-83
2022/06/09 09:05:33;;;;;;;;;;;;;;;18.22;57.61;99679.03;1092454;46;19943;-84
2022/06/09 09:06:39;;;;;;;;;;;;;;;18.35;57.81;99678.22;1088247;54;19949;-83
2022/06/09 09:07:44;;;;;;;;;;;;;;;17.98;58.06;99677.72;1088428;54;19943;-86
2022/06/09 09:35:20;;;;;;;;;;;;;;;18.95;51.95;99697.28;1095932;31;19998;-83
2022/06/09 09:41:58;;;;;;;;;;;;;;;19.61;49.88;99697.41;1087929;54;21048;-86
2022/06/09 09:44:15;;;;;;;;;;;;;;;19.75;49.81;99699.00;1088275;54;19935;-89
2022/06/09 09:48:44;;;;;;;;;;;;;;;20.01;48.97;99693.75;1088360;54;20614;-88
2022/06/09 09:51:11;;;;;;;;;;;;;;;20.13;49.62;99683.88;1072874;31;21279;31
2022/06/09 09:52:30;;;;;;;;;;;;;;;20.24;49.21;99694.06;1070915;54;20300;31
2022/06/09 09:54:38;;;;;;;;;;;;;;;20.33;47.88;99693.81;1074765;54;20744;31
2022/06/09 09:55:50;;;;;;;;;;;;;;;20.37;47.28;99695.88;1079553;39;20640;31
2022/06/09 21:46:34;;;;;;;;;;;;;;;16.53;72.97;100318.47;1070212;54;19946;31
2022/06/09 21:48:47;;;;;;;;;;;;;;;16.56;72.92;100322.69;1088954;54;19927;-86
2022/06/09 22:00:56;;;;;;;;;;;;;;;16.45;72.01;100337.38;1078206;54;20013;31
